메인 페이지
METAR-TAF:

METAR-TAF

공항 :

수쿠르, 파키스탄

위도: 27-43-19N, 경도: 068-47-31E, 고도: 60m

현재 날씨관측

예보는 26분 전, 18:00시(UTC)에 발표되었습니다.
무풍
온도 27°C
습도 51%
기압 1009 hPa
시정: 4000m
고도 10000ft 상공 구름 보통
연무

METAR: OPSK 041800Z 00000KT 4000 HZ SCT100 27/16 Q1009 NOSIG

시각: 23:26 (18:26 UTC)

예보

예보는 2 시간 56분 전, 15:30시(UTC)에 발표되었습니다.
예보 대상 시간: 04일 18시부터 05일 18시까지 (UTC)
4kt
시정: 3000m
연무
05일 0700시부터 (UTC)
북동10kt
시정: 5000m
연무

TAF: OPSK 041530Z 0418/0518 36004KT 3000 HZ NSC FM050700 05010KT 5000 HZ NSC

4,000개 이상의 공항 관측 자료 및 예보 (METAR 및 TAF 보고).

지도상에서 검색 가능한 기상관측소가 노란 점과 빨간 점으로 표시되어 있습니다.

기상관측소 명을 보려면 표시 위로 마우스를 이동하세요.

날씨 관측과 예보를 보려면 클릭하세요.

지도 변경 : 확대하려면 엑스 표시가 있는 녹색 버튼, 축소하려면 빼기 표시가 있는 녹색 버튼, 다음 페이지의 지도를 보려면 녹색 화살표를 클릭하세요.


METAR-TAF: